sensor_id;sensor_type;location;lat;lon;timestamp;temperature;humidity
56103;DHT22;41970;48.774;9.280;2023-11-21T00:00:31;9.60;99.90
56103;DHT22;41970;48.774;9.280;2023-11-21T00:02:56;9.70;99.90
56103;DHT22;41970;48.774;9.280;2023-11-21T00:05:23;9.70;99.90
56103;DHT22;41970;48.774;9.280;2023-11-21T00:07:48;9.80;99.90
56103;DHT22;41970;48.774;9.280;2023-11-21T00:10:14;9.80;99.90
56103;DHT22;41970;48.774;9.280;2023-11-21T00:12:41;9.90;99.90
56103;DHT22;41970;48.774;9.280;2023-11-21T00:15:08;9.60;99.90
56103;DHT22;41970;48.774;9.280;2023-11-21T00:17:38;9.30;99.90
56103;DHT22;41970;48.774;9.280;2023-11-21T00:20:07;9.10;99.90
56103;DHT22;41970;48.774;9.280;2023-11-21T00:22:34;8.90;99.90
56103;DHT22;41970;48.774;9.280;2023-11-21T00:25:00;8.80;99.90
56103;DHT22;41970;48.774;9.280;2023-11-21T00:27:26;8.80;99.90
56103;DHT22;41970;48.774;9.280;2023-11-21T00:29:51;8.70;99.90
56103;DHT22;41970;48.774;9.280;2023-11-21T00:32:17;8.60;99.90
56103;DHT22;41970;48.774;9.280;2023-11-21T00:34:43;8.50;99.90
56103;DHT22;41970;48.774;9.280;2023-11-21T00:37:09;8.60;99.90
56103;DHT22;41970;48.774;9.280;2023-11-21T00:39:34;8.50;99.90
56103;DHT22;41970;48.774;9.280;2023-11-21T00:42:00;8.50;99.90
56103;DHT22;41970;48.774;9.280;2023-11-21T00:44:26;8.70;99.90
56103;DHT22;41970;48.774;9.280;2023-11-21T00:46:52;8.90;99.90
56103;DHT22;41970;48.774;9.280;2023-11-21T00:49:17;9.20;99.90
56103;DHT22;41970;48.774;9.280;2023-11-21T00:51:43;9.30;99.90
56103;DHT22;41970;48.774;9.280;2023-11-21T00:54:09;9.30;99.90
56103;DHT22;41970;48.774;9.280;2023-11-21T00:56:34;9.50;99.90
56103;DHT22;41970;48.774;9.280;2023-11-21T00:59:00;9.60;99.90
56103;DHT22;41970;48.774;9.280;2023-11-21T01:01:26;9.80;99.90
56103;DHT22;41970;48.774;9.280;2023-11-21T01:03:52;9.80;99.90
56103;DHT22;41970;48.774;9.280;2023-11-21T01:06:17;9.80;99.90
56103;DHT22;41970;48.774;9.280;2023-11-21T01:08:44;9.90;99.90
56103;DHT22;41970;48.774;9.280;2023-11-21T01:11:10;9.80;99.90
56103;DHT22;41970;48.774;9.280;2023-11-21T01:13:38;9.50;99.90
56103;DHT22;41970;48.774;9.280;2023-11-21T01:16:05;9.40;99.90
56103;DHT22;41970;48.774;9.280;2023-11-21T01:18:32;9.40;99.90
56103;DHT22;41970;48.774;9.280;2023-11-21T01:20:58;9.30;99.90
56103;DHT22;41970;48.774;9.280;2023-11-21T01:23:26;9.40;99.90
56103;DHT22;41970;48.774;9.280;2023-11-21T01:25:52;9.40;99.90
56103;DHT22;41970;48.774;9.280;2023-11-21T01:28:18;9.50;99.90
56103;DHT22;41970;48.774;9.280;2023-11-21T01:30:45;9.70;99.90
56103;DHT22;41970;48.774;9.280;2023-11-21T01:33:11;9.90;99.90
56103;DHT22;41970;48.774;9.280;2023-11-21T01:35:37;9.90;99.90
56103;DHT22;41970;48.774;9.280;2023-11-21T01:38:03;10.00;99.90
56103;DHT22;41970;48.774;9.280;2023-11-21T01:40:29;10.10;99.90
56103;DHT22;41970;48.774;9.280;2023-11-21T01:42:56;10.20;99.90
56103;DHT22;41970;48.774;9.280;2023-11-21T01:45:23;10.20;99.90
56103;DHT22;41970;48.774;9.280;2023-11-21T01:47:50;10.30;99.90
56103;DHT22;41970;48.774;9.280;2023-11-21T01:50:17;10.40;99.90
56103;DHT22;41970;48.774;9.280;2023-11-21T01:52:45;10.50;99.90
56103;DHT22;41970;48.774;9.280;2023-11-21T01:55:11;10.50;99.90
56103;DHT22;41970;48.774;9.280;2023-11-21T01:57:38;10.50;99.90
56103;DHT22;41970;48.774;9.280;2023-11-21T02:00:04;10.40;99.90
56103;DHT22;41970;48.774;9.280;2023-11-21T02:02:42;10.40;99.90
56103;DHT22;41970;48.774;9.280;2023-11-21T02:05:13;10.40;99.90
56103;DHT22;41970;48.774;9.280;2023-11-21T02:07:40;10.30;99.90
56103;DHT22;41970;48.774;9.280;2023-11-21T02:10:07;10.50;99.90
56103;DHT22;41970;48.774;9.280;2023-11-21T02:12:34;10.50;99.90
56103;DHT22;41970;48.774;9.280;2023-11-21T02:15:02;10.60;99.90
56103;DHT22;41970;48.774;9.280;2023-11-21T02:17:31;10.60;99.90
56103;DHT22;41970;48.774;9.280;2023-11-21T02:19:58;10.60;99.90
56103;DHT22;41970;48.774;9.280;2023-11-21T02:22:30;10.50;99.90
56103;DHT22;41970;48.774;9.280;2023-11-21T02:24:56;10.20;99.90
56103;DHT22;41970;48.774;9.280;2023-11-21T02:27:24;10.10;99.90
56103;DHT22;41970;48.774;9.280;2023-11-21T02:29:50;10.10;99.90
56103;DHT22;41970;48.774;9.280;2023-11-21T02:32:16;10.20;99.90
56103;DHT22;41970;48.774;9.280;2023-11-21T02:34:44;10.10;99.90
56103;DHT22;41970;48.774;9.280;2023-11-21T02:37:10;10.20;99.90
56103;DHT22;41970;48.774;9.280;2023-11-21T02:39:36;10.30;99.90
56103;DHT22;41970;48.774;9.280;2023-11-21T02:42:02;10.40;99.90
56103;DHT22;41970;48.774;9.280;2023-11-21T02:44:27;10.40;99.90
56103;DHT22;41970;48.774;9.280;2023-11-21T02:46:53;10.40;99.90
56103;DHT22;41970;48.774;9.280;2023-11-21T02:49:19;10.30;99.90
56103;DHT22;41970;48.774;9.280;2023-11-21T02:51:45;10.30;99.90
56103;DHT22;41970;48.774;9.280;2023-11-21T02:54:11;10.40;99.90
56103;DHT22;41970;48.774;9.280;2023-11-21T02:56:37;10.20;99.90
56103;DHT22;41970;48.774;9.280;2023-11-21T02:59:03;10.20;99.90
56103;DHT22;41970;48.774;9.280;2023-11-21T03:01:29;10.10;99.90
56103;DHT22;41970;48.774;9.280;2023-11-21T03:03:55;9.90;99.90
56103;DHT22;41970;48.774;9.280;2023-11-21T03:06:21;9.90;99.90
56103;DHT22;41970;48.774;9.280;2023-11-21T03:08:47;9.80;99.90
56103;DHT22;41970;48.774;9.280;2023-11-21T03:11:13;9.80;99.90
56103;DHT22;41970;48.774;9.280;2023-11-21T03:13:40;9.60;99.90
56103;DHT22;41970;48.774;9.280;2023-11-21T03:16:09;9.60;99.90
56103;DHT22;41970;48.774;9.280;2023-11-21T03:18:36;9.40;99.90
56103;DHT22;41970;48.774;9.280;2023-11-21T03:21:03;9.30;99.90
56103;DHT22;41970;48.774;9.280;2023-11-21T03:23:29;9.10;99.90
56103;DHT22;41970;48.774;9.280;2023-11-21T03:25:54;9.00;99.90
56103;DHT22;41970;48.774;9.280;2023-11-21T03:28:20;9.00;99.90
56103;DHT22;41970;48.774;9.280;2023-11-21T03:30:46;9.10;99.90
56103;DHT22;41970;48.774;9.280;2023-11-21T03:33:12;9.00;99.90
56103;DHT22;41970;48.774;9.280;2023-11-21T03:35:38;9.00;99.90
56103;DHT22;41970;48.774;9.280;2023-11-21T03:38:03;9.00;99.90
56103;DHT22;41970;48.774;9.280;2023-11-21T03:40:30;8.90;99.90
56103;DHT22;41970;48.774;9.280;2023-11-21T03:42:57;8.90;99.90
56103;DHT22;41970;48.774;9.280;2023-11-21T03:45:23;8.80;99.90
56103;DHT22;41970;48.774;9.280;2023-11-21T03:47:49;9.00;99.90
56103;DHT22;41970;48.774;9.280;2023-11-21T03:50:15;9.00;99.90
56103;DHT22;41970;48.774;9.280;2023-11-21T03:52:41;9.00;99.90
56103;DHT22;41970;48.774;9.280;2023-11-21T03:55:07;9.30;99.90
56103;DHT22;41970;48.774;9.280;2023-11-21T03:57:32;9.30;99.90
56103;DHT22;41970;48.774;9.280;2023-11-21T03:59:58;9.30;99.90
56103;DHT22;41970;48.774;9.280;2023-11-21T04:02:24;9.20;99.90
56103;DHT22;41970;48.774;9.280;2023-11-21T04:04:51;9.20;99.90
56103;DHT22;41970;48.774;9.280;2023-11-21T04:07:17;9.20;99.90
56103;DHT22;41970;48.774;9.280;2023-11-21T04:09:43;9.10;99.90
56103;DHT22;41970;48.774;9.280;2023-11-21T04:12:08;9.00;99.90
56103;DHT22;41970;48.774;9.280;2023-11-21T04:14:35;9.10;99.90
56103;DHT22;41970;48.774;9.280;2023-11-21T04:17:01;9.20;99.90
56103;DHT22;41970;48.774;9.280;2023-11-21T04:19:27;9.40;99.90
56103;DHT22;41970;48.774;9.280;2023-11-21T04:21:52;9.60;99.90
56103;DHT22;41970;48.774;9.280;2023-11-21T04:24:18;9.70;99.90
56103;DHT22;41970;48.774;9.280;2023-11-21T04:26:44;9.80;99.90
56103;DHT22;41970;48.774;9.280;2023-11-21T04:29:10;9.80;99.90
56103;DHT22;41970;48.774;9.280;2023-11-21T04:31:36;9.90;99.90
56103;DHT22;41970;48.774;9.280;2023-11-21T04:34:01;10.00;99.90
56103;DHT22;41970;48.774;9.280;2023-11-21T04:36:29;10.20;99.90
56103;DHT22;41970;48.774;9.280;2023-11-21T04:38:56;10.20;99.90
56103;DHT22;41970;48.774;9.280;2023-11-21T04:41:22;10.30;99.90
56103;DHT22;41970;48.774;9.280;2023-11-21T04:43:48;10.30;99.90
56103;DHT22;41970;48.774;9.280;2023-11-21T04:46:14;9.80;99.90
56103;DHT22;41970;48.774;9.280;2023-11-21T04:48:40;9.50;99.90
56103;DHT22;41970;48.774;9.280;2023-11-21T04:51:06;9.40;99.90
56103;DHT22;41970;48.774;9.280;2023-11-21T04:53:32;9.50;99.90
56103;DHT22;41970;48.774;9.280;2023-11-21T04:55:58;9.70;99.90
56103;DHT22;41970;48.774;9.280;2023-11-21T04:58:24;9.80;99.90
56103;DHT22;41970;48.774;9.280;2023-11-21T05:00:50;9.90;99.90
56103;DHT22;41970;48.774;9.280;2023-11-21T05:03:16;10.00;99.90
56103;DHT22;41970;48.774;9.280;2023-11-21T05:05:41;10.10;99.90
56103;DHT22;41970;48.774;9.280;2023-11-21T05:08:07;10.20;99.90
56103;DHT22;41970;48.774;9.280;2023-11-21T05:10:33;10.10;99.90
56103;DHT22;41970;48.774;9.280;2023-11-21T05:12:59;9.90;99.90
56103;DHT22;41970;48.774;9.280;2023-11-21T05:15:25;9.70;99.90
56103;DHT22;41970;48.774;9.280;2023-11-21T05:17:53;9.60;99.90
56103;DHT22;41970;48.774;9.280;2023-11-21T05:20:19;9.50;99.90
56103;DHT22;41970;48.774;9.280;2023-11-21T05:22:47;9.70;99.90
56103;DHT22;41970;48.774;9.280;2023-11-21T05:25:14;9.80;99.90
56103;DHT22;41970;48.774;9.280;2023-11-21T05:27:40;9.70;99.90
56103;DHT22;41970;48.774;9.280;2023-11-21T05:30:06;9.70;99.90
56103;DHT22;41970;48.774;9.280;2023-11-21T05:32:33;9.70;99.90
56103;DHT22;41970;48.774;9.280;2023-11-21T05:34:59;9.80;99.90
56103;DHT22;41970;48.774;9.280;2023-11-21T05:37:25;9.80;99.90
56103;DHT22;41970;48.774;9.280;2023-11-21T05:39:53;9.80;99.90
56103;DHT22;41970;48.774;9.280;2023-11-21T05:42:19;9.80;99.90
56103;DHT22;41970;48.774;9.280;2023-11-21T05:44:44;9.90;99.90
56103;DHT22;41970;48.774;9.280;2023-11-21T05:47:10;9.80;99.90
56103;DHT22;41970;48.774;9.280;2023-11-21T05:49:36;9.70;99.90
56103;DHT22;41970;48.774;9.280;2023-11-21T05:52:02;9.60;99.90
56103;DHT22;41970;48.774;9.280;2023-11-21T05:54:28;9.70;99.90
56103;DHT22;41970;48.774;9.280;2023-11-21T05:56:54;9.80;99.90
56103;DHT22;41970;48.774;9.280;2023-11-21T05:59:20;9.90;99.90
56103;DHT22;41970;48.774;9.280;2023-11-21T06:01:46;9.90;99.90
56103;DHT22;41970;48.774;9.280;2023-11-21T06:04:12;9.90;99.90
56103;DHT22;41970;48.774;9.280;2023-11-21T06:06:38;9.80;99.90
56103;DHT22;41970;48.774;9.280;2023-11-21T06:09:04;9.50;99.90
56103;DHT22;41970;48.774;9.280;2023-11-21T06:11:31;9.30;99.90
56103;DHT22;41970;48.774;9.280;2023-11-21T06:13:57;9.30;99.90
56103;DHT22;41970;48.774;9.280;2023-11-21T06:16:23;9.40;99.90
56103;DHT22;41970;48.774;9.280;2023-11-21T06:18:49;9.60;99.90
56103;DHT22;41970;48.774;9.280;2023-11-21T06:21:15;9.70;99.90
56103;DHT22;41970;48.774;9.280;2023-11-21T06:23:42;9.90;99.90
56103;DHT22;41970;48.774;9.280;2023-11-21T06:26:08;9.90;99.90
56103;DHT22;41970;48.774;9.280;2023-11-21T06:28:35;9.80;99.90
56103;DHT22;41970;48.774;9.280;2023-11-21T06:31:02;9.80;99.90
56103;DHT22;41970;48.774;9.280;2023-11-21T06:33:33;9.90;99.90
56103;DHT22;41970;48.774;9.280;2023-11-21T06:35:59;9.80;99.90
56103;DHT22;41970;48.774;9.280;2023-11-21T06:38:28;9.90;99.90
56103;DHT22;41970;48.774;9.280;2023-11-21T06:40:56;9.90;99.90
56103;DHT22;41970;48.774;9.280;2023-11-21T06:43:23;9.80;99.90
56103;DHT22;41970;48.774;9.280;2023-11-21T06:45:49;10.00;99.90
56103;DHT22;41970;48.774;9.280;2023-11-21T06:48:15;10.00;99.90
56103;DHT22;41970;48.774;9.280;2023-11-21T06:50:41;10.10;99.90
56103;DHT22;41970;48.774;9.280;2023-11-21T06:53:07;10.10;99.90
56103;DHT22;41970;48.774;9.280;2023-11-21T06:55:33;10.10;99.90
56103;DHT22;41970;48.774;9.280;2023-11-21T06:58:00;10.10;99.90
56103;DHT22;41970;48.774;9.280;2023-11-21T07:00:26;10.00;99.90
56103;DHT22;41970;48.774;9.280;2023-11-21T07:02:54;9.90;99.90
56103;DHT22;41970;48.774;9.280;2023-11-21T07:05:21;10.00;99.90
56103;DHT22;41970;48.774;9.280;2023-11-21T07:07:48;10.10;99.90
56103;DHT22;41970;48.774;9.280;2023-11-21T07:10:14;10.10;99.90
56103;DHT22;41970;48.774;9.280;2023-11-21T07:12:40;10.20;99.90
56103;DHT22;41970;48.774;9.280;2023-11-21T07:15:06;10.30;99.90
56103;DHT22;41970;48.774;9.280;2023-11-21T07:17:37;10.30;99.90
56103;DHT22;41970;48.774;9.280;2023-11-21T07:20:03;10.30;99.90
56103;DHT22;41970;48.774;9.280;2023-11-21T07:22:29;10.30;99.90
56103;DHT22;41970;48.774;9.280;2023-11-21T07:24:55;10.40;99.90
56103;DHT22;41970;48.774;9.280;2023-11-21T07:27:24;10.50;99.90
56103;DHT22;41970;48.774;9.280;2023-11-21T07:29:50;10.50;99.90
56103;DHT22;41970;48.774;9.280;2023-11-21T07:32:15;10.60;99.90
56103;DHT22;41970;48.774;9.280;2023-11-21T07:34:41;10.60;99.90
56103;DHT22;41970;48.774;9.280;2023-11-21T07:37:08;10.70;99.90
56103;DHT22;41970;48.774;9.280;2023-11-21T07:39:35;10.70;99.90
56103;DHT22;41970;48.774;9.280;2023-11-21T07:42:02;10.70;99.90
56103;DHT22;41970;48.774;9.280;2023-11-21T07:44:28;10.70;99.90
56103;DHT22;41970;48.774;9.280;2023-11-21T07:46:54;10.70;99.90
56103;DHT22;41970;48.774;9.280;2023-11-21T07:49:23;10.70;99.90
56103;DHT22;41970;48.774;9.280;2023-11-21T07:51:49;10.80;99.90
56103;DHT22;41970;48.774;9.280;2023-11-21T07:54:16;10.80;99.90
56103;DHT22;41970;48.774;9.280;2023-11-21T07:56:42;10.80;99.90
56103;DHT22;41970;48.774;9.280;2023-11-21T07:59:08;10.80;99.90
56103;DHT22;41970;48.774;9.280;2023-11-21T08:01:34;10.90;99.90
56103;DHT22;41970;48.774;9.280;2023-11-21T08:03:59;10.90;99.90
56103;DHT22;41970;48.774;9.280;2023-11-21T08:06:32;10.90;99.90
56103;DHT22;41970;48.774;9.280;2023-11-21T08:08:58;10.80;99.90
56103;DHT22;41970;48.774;9.280;2023-11-21T08:11:24;10.60;99.90
56103;DHT22;41970;48.774;9.280;2023-11-21T08:13:50;10.50;99.90
56103;DHT22;41970;48.774;9.280;2023-11-21T08:16:15;10.50;99.90
56103;DHT22;41970;48.774;9.280;2023-11-21T08:18:42;10.60;99.90
56103;DHT22;41970;48.774;9.280;2023-11-21T08:21:08;10.60;99.90
56103;DHT22;41970;48.774;9.280;2023-11-21T08:23:34;10.70;99.90
56103;DHT22;41970;48.774;9.280;2023-11-21T08:26:00;10.70;99.90
56103;DHT22;41970;48.774;9.280;2023-11-21T08:28:26;10.80;99.90
56103;DHT22;41970;48.774;9.280;2023-11-21T08:30:54;10.80;99.90
56103;DHT22;41970;48.774;9.280;2023-11-21T08:33:20;10.90;99.90
56103;DHT22;41970;48.774;9.280;2023-11-21T08:35:46;10.90;99.90
56103;DHT22;41970;48.774;9.280;2023-11-21T08:38:12;10.90;99.90
56103;DHT22;41970;48.774;9.280;2023-11-21T08:40:38;10.90;99.90
56103;DHT22;41970;48.774;9.280;2023-11-21T08:43:04;11.00;99.90
56103;DHT22;41970;48.774;9.280;2023-11-21T08:45:33;11.00;99.90
56103;DHT22;41970;48.774;9.280;2023-11-21T08:48:00;11.10;99.90
56103;DHT22;41970;48.774;9.280;2023-11-21T08:50:26;11.10;99.90
56103;DHT22;41970;48.774;9.280;2023-11-21T08:52:51;11.10;99.90
56103;DHT22;41970;48.774;9.280;2023-11-21T08:55:17;11.10;99.90
56103;DHT22;41970;48.774;9.280;2023-11-21T08:57:45;11.20;99.90
56103;DHT22;41970;48.774;9.280;2023-11-21T09:00:14;11.20;99.90
56103;DHT22;41970;48.774;9.280;2023-11-21T09:02:43;11.20;99.90
56103;DHT22;41970;48.774;9.280;2023-11-21T09:05:12;11.20;99.90
56103;DHT22;41970;48.774;9.280;2023-11-21T09:07:42;11.20;99.90
56103;DHT22;41970;48.774;9.280;2023-11-21T09:10:08;11.30;99.90
56103;DHT22;41970;48.774;9.280;2023-11-21T09:12:38;11.30;99.90
56103;DHT22;41970;48.774;9.280;2023-11-21T09:15:04;11.30;99.90
56103;DHT22;41970;48.774;9.280;2023-11-21T09:17:31;11.30;99.90
56103;DHT22;41970;48.774;9.280;2023-11-21T09:19:57;11.30;99.90
56103;DHT22;41970;48.774;9.280;2023-11-21T09:22:23;11.30;99.90
56103;DHT22;41970;48.774;9.280;2023-11-21T09:24:51;11.30;99.90
56103;DHT22;41970;48.774;9.280;2023-11-21T09:27:16;11.40;99.90
56103;DHT22;41970;48.774;9.280;2023-11-21T09:29:43;11.40;99.90
56103;DHT22;41970;48.774;9.280;2023-11-21T09:32:09;11.40;99.90
56103;DHT22;41970;48.774;9.280;2023-11-21T09:34:38;11.40;99.90
56103;DHT22;41970;48.774;9.280;2023-11-21T09:37:07;11.50;99.90
56103;DHT22;41970;48.774;9.280;2023-11-21T09:39:33;11.50;99.90
56103;DHT22;41970;48.774;9.280;2023-11-21T09:47:15;11.60;99.90
56103;DHT22;41970;48.774;9.280;2023-11-21T09:49:46;11.70;99.90
56103;DHT22;41970;48.774;9.280;2023-11-21T09:52:17;11.80;99.90
56103;DHT22;41970;48.774;9.280;2023-11-21T09:54:44;11.70;99.90
56103;DHT22;41970;48.774;9.280;2023-11-21T09:57:10;11.70;99.90
56103;DHT22;41970;48.774;9.280;2023-11-21T09:59:36;11.70;99.90
56103;DHT22;41970;48.774;9.280;2023-11-21T10:02:03;11.80;99.90
56103;DHT22;41970;48.774;9.280;2023-11-21T10:04:29;11.80;99.90
56103;DHT22;41970;48.774;9.280;2023-11-21T10:06:56;11.90;99.90
56103;DHT22;41970;48.774;9.280;2023-11-21T10:09:24;11.80;99.90
56103;DHT22;41970;48.774;9.280;2023-11-21T10:11:52;11.60;99.90
56103;DHT22;41970;48.774;9.280;2023-11-21T10:14:19;11.50;99.90
56103;DHT22;41970;48.774;9.280;2023-11-21T10:16:48;11.60;99.90
56103;DHT22;41970;48.774;9.280;2023-11-21T10:19:14;11.60;99.90
56103;DHT22;41970;48.774;9.280;2023-11-21T10:21:41;11.60;99.90
56103;DHT22;41970;48.774;9.280;2023-11-21T10:24:07;11.70;99.90
56103;DHT22;41970;48.774;9.280;2023-11-21T10:26:34;11.70;99.90
56103;DHT22;41970;48.774;9.280;2023-11-21T10:29:02;11.70;99.90
56103;DHT22;41970;48.774;9.280;2023-11-21T10:31:32;11.80;99.90
56103;DHT22;41970;48.774;9.280;2023-11-21T10:34:15;11.80;99.90
56103;DHT22;41970;48.774;9.280;2023-11-21T10:36:42;11.80;99.90
56103;DHT22;41970;48.774;9.280;2023-11-21T10:39:08;11.70;99.90
56103;DHT22;41970;48.774;9.280;2023-11-21T10:41:35;11.60;99.90
56103;DHT22;41970;48.774;9.280;2023-11-21T10:44:02;11.50;99.90
56103;DHT22;41970;48.774;9.280;2023-11-21T10:46:33;11.40;99.90
56103;DHT22;41970;48.774;9.280;2023-11-21T10:49:01;11.40;99.90
56103;DHT22;41970;48.774;9.280;2023-11-21T10:51:27;11.40;99.90
56103;DHT22;41970;48.774;9.280;2023-11-21T10:53:54;11.50;99.90
56103;DHT22;41970;48.774;9.280;2023-11-21T10:56:23;11.50;99.90
56103;DHT22;41970;48.774;9.280;2023-11-21T10:58:49;11.50;99.90
56103;DHT22;41970;48.774;9.280;2023-11-21T11:01:18;11.50;99.90
56103;DHT22;41970;48.774;9.280;2023-11-21T11:03:47;11.50;99.90
56103;DHT22;41970;48.774;9.280;2023-11-21T11:06:13;11.60;99.90
56103;DHT22;41970;48.774;9.280;2023-11-21T11:08:40;11.50;99.90
56103;DHT22;41970;48.774;9.280;2023-11-21T11:11:07;11.50;99.90
56103;DHT22;41970;48.774;9.280;2023-11-21T11:13:33;11.60;99.90
56103;DHT22;41970;48.774;9.280;2023-11-21T11:16:00;11.60;99.90
56103;DHT22;41970;48.774;9.280;2023-11-21T11:18:32;11.60;99.90
56103;DHT22;41970;48.774;9.280;2023-11-21T11:26:47;11.50;99.90
56103;DHT22;41970;48.774;9.280;2023-11-21T11:32:08;11.40;99.90
56103;DHT22;41970;48.774;9.280;2023-11-21T11:34:41;11.30;99.90
56103;DHT22;41970;48.774;9.280;2023-11-21T11:37:09;11.20;99.90
56103;DHT22;41970;48.774;9.280;2023-11-21T11:42:04;10.80;99.90
56103;DHT22;41970;48.774;9.280;2023-11-21T11:49:57;11.00;99.90
56103;DHT22;41970;48.774;9.280;2023-11-21T11:54:59;11.30;99.90
56103;DHT22;41970;48.774;9.280;2023-11-21T11:57:25;11.30;99.90
56103;DHT22;41970;48.774;9.280;2023-11-21T12:05:22;11.40;99.90
56103;DHT22;41970;48.774;9.280;2023-11-21T12:07:57;11.40;99.90
56103;DHT22;41970;48.774;9.280;2023-11-21T12:10:25;11.40;99.90
56103;DHT22;41970;48.774;9.280;2023-11-21T12:13:07;11.50;99.90
56103;DHT22;41970;48.774;9.280;2023-11-21T12:15:34;11.60;99.90
56103;DHT22;41970;48.774;9.280;2023-11-21T12:18:00;11.60;99.90
56103;DHT22;41970;48.774;9.280;2023-11-21T12:20:27;11.60;99.90
56103;DHT22;41970;48.774;9.280;2023-11-21T12:22:55;11.60;99.90
56103;DHT22;41970;48.774;9.280;2023-11-21T12:27:48;11.70;99.90
56103;DHT22;41970;48.774;9.280;2023-11-21T12:30:16;11.60;99.90
56103;DHT22;41970;48.774;9.280;2023-11-21T12:32:44;11.70;99.90
56103;DHT22;41970;48.774;9.280;2023-11-21T12:35:11;11.70;99.90
56103;DHT22;41970;48.774;9.280;2023-11-21T12:37:38;11.70;99.90
56103;DHT22;41970;48.774;9.280;2023-11-21T12:40:06;11.70;99.90
56103;DHT22;41970;48.774;9.280;2023-11-21T12:42:33;11.70;99.90
56103;DHT22;41970;48.774;9.280;2023-11-21T12:45:24;11.70;99.90
56103;DHT22;41970;48.774;9.280;2023-11-21T12:47:59;11.80;99.90
56103;DHT22;41970;48.774;9.280;2023-11-21T12:50:27;11.80;99.90
56103;DHT22;41970;48.774;9.280;2023-11-21T12:53:05;11.70;99.90
56103;DHT22;41970;48.774;9.280;2023-11-21T12:55:34;11.70;99.90
56103;DHT22;41970;48.774;9.280;2023-11-21T12:58:07;11.70;99.90
56103;DHT22;41970;48.774;9.280;2023-11-21T13:00:47;11.80;99.90
56103;DHT22;41970;48.774;9.280;2023-11-21T13:03:15;11.80;99.90
56103;DHT22;41970;48.774;9.280;2023-11-21T13:05:51;11.80;99.90
56103;DHT22;41970;48.774;9.280;2023-11-21T13:08:21;11.90;99.90
56103;DHT22;41970;48.774;9.280;2023-11-21T13:10:53;11.90;99.90
56103;DHT22;41970;48.774;9.280;2023-11-21T13:13:20;11.90;99.90
56103;DHT22;41970;48.774;9.280;2023-11-21T13:18:19;11.90;99.90
56103;DHT22;41970;48.774;9.280;2023-11-21T13:20:47;12.00;99.90
56103;DHT22;41970;48.774;9.280;2023-11-21T13:23:13;12.00;99.90
56103;DHT22;41970;48.774;9.280;2023-11-21T13:25:39;12.00;99.90
56103;DHT22;41970;48.774;9.280;2023-11-21T13:28:08;12.00;99.90
56103;DHT22;41970;48.774;9.280;2023-11-21T13:30:35;12.00;99.90
56103;DHT22;41970;48.774;9.280;2023-11-21T13:33:05;12.00;99.90
56103;DHT22;41970;48.774;9.280;2023-11-21T13:35:36;11.90;99.90
56103;DHT22;41970;48.774;9.280;2023-11-21T13:38:13;11.90;99.90
56103;DHT22;41970;48.774;9.280;2023-11-21T13:40:41;11.80;99.90
56103;DHT22;41970;48.774;9.280;2023-11-21T13:43:12;11.70;99.90
56103;DHT22;41970;48.774;9.280;2023-11-21T13:45:43;11.50;99.90
56103;DHT22;41970;48.774;9.280;2023-11-21T13:48:10;11.50;99.90
56103;DHT22;41970;48.774;9.280;2023-11-21T13:50:39;11.50;99.90
56103;DHT22;41970;48.774;9.280;2023-11-21T13:53:10;11.50;99.90
56103;DHT22;41970;48.774;9.280;2023-11-21T13:55:51;11.40;99.90
56103;DHT22;41970;48.774;9.280;2023-11-21T13:58:20;11.50;99.90
56103;DHT22;41970;48.774;9.280;2023-11-21T14:01:00;11.50;99.90
56103;DHT22;41970;48.774;9.280;2023-11-21T14:03:31;11.60;99.90
56103;DHT22;41970;48.774;9.280;2023-11-21T14:06:10;11.60;99.90
56103;DHT22;41970;48.774;9.280;2023-11-21T14:08:40;11.60;99.90
56103;DHT22;41970;48.774;9.280;2023-11-21T14:11:07;11.60;99.90
56103;DHT22;41970;48.774;9.280;2023-11-21T14:13:33;11.60;99.90
56103;DHT22;41970;48.774;9.280;2023-11-21T14:15:59;11.60;99.90
56103;DHT22;41970;48.774;9.280;2023-11-21T14:18:27;11.50;99.90
56103;DHT22;41970;48.774;9.280;2023-11-21T14:20:59;11.50;99.90
56103;DHT22;41970;48.774;9.280;2023-11-21T14:23:25;11.40;99.90
56103;DHT22;41970;48.774;9.280;2023-11-21T14:25:51;11.40;99.90
56103;DHT22;41970;48.774;9.280;2023-11-21T14:28:17;11.30;99.90
56103;DHT22;41970;48.774;9.280;2023-11-21T14:30:47;11.20;99.90
56103;DHT22;41970;48.774;9.280;2023-11-21T14:33:13;11.20;99.90
56103;DHT22;41970;48.774;9.280;2023-11-21T14:35:42;11.20;99.90
56103;DHT22;41970;48.774;9.280;2023-11-21T14:38:08;11.10;99.90
56103;DHT22;41970;48.774;9.280;2023-11-21T14:40:35;11.20;99.90
56103;DHT22;41970;48.774;9.280;2023-11-21T14:43:04;11.10;99.90
56103;DHT22;41970;48.774;9.280;2023-11-21T14:45:33;11.00;99.90
56103;DHT22;41970;48.774;9.280;2023-11-21T14:48:00;11.10;99.90
56103;DHT22;41970;48.774;9.280;2023-11-21T14:50:35;11.20;99.90
56103;DHT22;41970;48.774;9.280;2023-11-21T14:53:14;11.20;99.90
56103;DHT22;41970;48.774;9.280;2023-11-21T14:55:40;11.30;99.90
56103;DHT22;41970;48.774;9.280;2023-11-21T14:58:15;11.30;99.90
56103;DHT22;41970;48.774;9.280;2023-11-21T15:00:45;11.30;99.90
56103;DHT22;41970;48.774;9.280;2023-11-21T15:03:12;11.30;99.90
56103;DHT22;41970;48.774;9.280;2023-11-21T15:06:06;11.30;99.90
56103;DHT22;41970;48.774;9.280;2023-11-21T15:08:55;11.30;99.90
56103;DHT22;41970;48.774;9.280;2023-11-21T15:11:41;11.10;99.90
56103;DHT22;41970;48.774;9.280;2023-11-21T15:14:07;10.90;99.90
56103;DHT22;41970;48.774;9.280;2023-11-21T15:16:37;10.90;99.90
56103;DHT22;41970;48.774;9.280;2023-11-21T15:19:07;11.00;99.90
56103;DHT22;41970;48.774;9.280;2023-11-21T15:21:33;10.90;99.90
56103;DHT22;41970;48.774;9.280;2023-11-21T15:23:59;10.90;99.90
56103;DHT22;41970;48.774;9.280;2023-11-21T15:26:25;10.80;99.90
56103;DHT22;41970;48.774;9.280;2023-11-21T15:28:51;10.90;99.90
56103;DHT22;41970;48.774;9.280;2023-11-21T15:31:17;10.90;99.90
56103;DHT22;41970;48.774;9.280;2023-11-21T15:33:49;10.90;99.90
56103;DHT22;41970;48.774;9.280;2023-11-21T15:36:15;10.80;99.90
56103;DHT22;41970;48.774;9.280;2023-11-21T15:38:40;10.60;99.90
56103;DHT22;41970;48.774;9.280;2023-11-21T15:41:06;10.60;99.90
56103;DHT22;41970;48.774;9.280;2023-11-21T15:43:35;10.50;99.90
56103;DHT22;41970;48.774;9.280;2023-11-21T15:46:01;10.60;99.90
56103;DHT22;41970;48.774;9.280;2023-11-21T15:48:31;10.50;99.90
56103;DHT22;41970;48.774;9.280;2023-11-21T15:50:57;10.30;99.90
56103;DHT22;41970;48.774;9.280;2023-11-21T15:53:24;10.30;99.90
56103;DHT22;41970;48.774;9.280;2023-11-21T15:55:50;10.30;99.90
56103;DHT22;41970;48.774;9.280;2023-11-21T15:58:16;10.20;99.90
56103;DHT22;41970;48.774;9.280;2023-11-21T16:00:42;10.30;99.90
56103;DHT22;41970;48.774;9.280;2023-11-21T16:03:08;10.30;99.90
56103;DHT22;41970;48.774;9.280;2023-11-21T16:05:35;10.30;99.90
56103;DHT22;41970;48.774;9.280;2023-11-21T16:08:01;10.20;99.90
56103;DHT22;41970;48.774;9.280;2023-11-21T16:10:27;10.30;99.90